createdAt,value
2019-01-24T00:01:08.747Z,80.93
2019-01-24T00:03:36.934Z,84.97
2019-01-24T00:06:05.086Z,82.77
2019-01-24T00:08:33.255Z,81.57
2019-01-24T00:11:05.615Z,87.17
2019-01-24T00:13:33.796Z,87.70
2019-01-24T00:16:06.876Z,85.90
2019-01-24T00:18:34.945Z,80.13
2019-01-24T00:21:03.123Z,76.93
2019-01-24T00:23:31.709Z,79.90
2019-01-24T00:25:59.874Z,82.20
2019-01-24T00:28:29.116Z,77.27
2019-01-24T00:30:57.246Z,82.27
2019-01-24T00:33:25.416Z,83.53
2019-01-24T00:35:53.606Z,84.70
2019-01-24T00:38:22.389Z,76.50
2019-01-24T00:40:50.561Z,88.52
2019-01-24T00:43:19.029Z,85.50
2019-01-24T00:45:47.203Z,82.23
2019-01-24T00:48:15.389Z,88.80
2019-01-24T00:50:43.870Z,89.73
2019-01-24T00:53:12.056Z,96.03
2019-01-24T00:55:40.228Z,88.97
2019-01-24T00:58:08.792Z,81.53
2019-01-24T01:00:36.988Z,85.33
2019-01-24T01:03:05.670Z,81.43
2019-01-24T01:05:34.038Z,88.40
2019-01-24T01:08:02.216Z,87.40
2019-01-24T01:10:30.437Z,86.73
2019-01-24T01:12:58.818Z,77.83
2019-01-24T01:15:27.041Z,79.73
2019-01-24T01:17:55.574Z,88.03
2019-01-24T01:20:24.184Z,87.57
2019-01-24T01:22:52.682Z,87.63
2019-01-24T01:25:20.918Z,83.03
2019-01-24T01:27:51.096Z,81.37
2019-01-24T01:30:21.186Z,87.43
2019-01-24T01:32:49.459Z,80.13
2019-01-24T01:35:17.891Z,78.60
2019-01-24T01:37:46.028Z,79.23
2019-01-24T01:40:14.841Z,83.83
2019-01-24T01:42:43.759Z,84.90
2019-01-24T01:45:14.768Z,85.10
2019-01-24T01:47:42.927Z,88.53
2019-01-24T01:50:13.858Z,83.20
2019-01-24T01:52:42.418Z,81.43
2019-01-24T01:55:10.606Z,83.67
2019-01-24T01:57:39.080Z,84.60
2019-01-24T02:00:09.685Z,86.10
2019-01-24T02:02:38.165Z,80.60
2019-01-24T02:05:07.183Z,88.10
2019-01-24T02:07:36.676Z,82.07
2019-01-24T02:10:06.806Z,82.93
2019-01-24T02:12:35.376Z,85.00
2019-01-24T02:15:04.409Z,84.67
2019-01-24T02:17:33.589Z,87.43
2019-01-24T02:20:01.763Z,77.47
2019-01-24T02:22:29.935Z,86.07
2019-01-24T02:24:58.108Z,87.77
2019-01-24T02:27:26.291Z,80.63
2019-01-24T02:29:54.455Z,80.37
2019-01-24T02:32:22.922Z,84.60
2019-01-24T02:34:51.099Z,88.63
2019-01-24T02:37:19.286Z,84.73
2019-01-24T02:39:47.828Z,79.90
2019-01-24T02:42:17.992Z,91.63
2019-01-24T02:44:46.146Z,81.30
2019-01-24T02:47:15.398Z,81.47
2019-01-24T02:49:43.788Z,83.90
2019-01-24T02:52:12.973Z,81.67
2019-01-24T02:54:41.388Z,85.80
2019-01-24T02:57:11.003Z,82.60
2019-01-24T02:59:39.207Z,94.77
2019-01-24T03:02:11.694Z,82.87
2019-01-24T03:04:40.135Z,83.93
2019-01-24T03:07:08.326Z,85.63
2019-01-24T03:09:37.418Z,81.87
2019-01-24T03:12:05.583Z,87.33
2019-01-24T03:14:33.766Z,88.50
2019-01-24T03:17:01.990Z,91.53
2019-01-24T03:19:30.528Z,83.93
2019-01-24T03:21:58.690Z,81.87
2019-01-24T03:24:27.036Z,91.37
2019-01-24T03:26:55.721Z,80.87
2019-01-24T03:29:23.946Z,90.63
2019-01-24T03:31:52.468Z,86.07
2019-01-24T03:34:21.294Z,84.17
2019-01-24T03:36:49.555Z,93.53
2019-01-24T03:39:18.006Z,88.43
2019-01-24T03:41:46.217Z,82.63
2019-01-24T03:44:14.700Z,87.43
2019-01-24T03:46:42.880Z,102.70
2019-01-24T03:49:11.052Z,90.40
2019-01-24T03:51:39.516Z,103.23
2019-01-24T03:54:08.435Z,88.43
2019-01-24T03:56:36.604Z,95.97
2019-01-24T03:59:04.814Z,84.87
2019-01-24T04:01:33.039Z,90.40
2019-01-24T04:04:01.213Z,87.73
2019-01-24T04:06:35.275Z,97.43
2019-01-24T04:09:05.019Z,89.80
2019-01-24T04:11:33.222Z,93.07
2019-01-24T04:14:02.421Z,88.07
2019-01-24T04:16:30.598Z,99.30
2019-01-24T04:18:58.755Z,99.20
2019-01-24T04:21:28.013Z,95.73
2019-01-24T04:23:57.155Z,89.63
2019-01-24T04:26:25.717Z,84.10
2019-01-24T04:28:53.912Z,91.60
2019-01-24T04:31:22.103Z,83.57
2019-01-24T04:33:50.260Z,93.00
2019-01-24T04:36:18.493Z,89.03
2019-01-24T04:38:47.109Z,96.03
2019-01-24T04:41:15.758Z,108.53
2019-01-24T04:43:44.379Z,97.40
2019-01-24T04:46:13.261Z,99.37
2019-01-24T04:48:41.467Z,102.97
2019-01-24T04:51:10.653Z,94.00
2019-01-24T04:53:38.823Z,96.63
2019-01-24T04:56:06.986Z,92.50
2019-01-24T04:58:36.197Z,104.73
2019-01-24T05:01:04.416Z,102.50
2019-01-24T05:03:32.929Z,100.07
2019-01-24T05:06:01.150Z,99.80
2019-01-24T05:08:29.872Z,102.83
2019-01-24T05:10:58.249Z,104.77
2019-01-24T05:13:26.565Z,98.63
2019-01-24T05:15:55.759Z,100.87
2019-01-24T05:18:24.955Z,114.07
2019-01-24T05:20:54.551Z,113.43
2019-01-24T05:23:22.749Z,112.83
2019-01-24T05:25:51.962Z,108.50
2019-01-24T05:28:21.173Z,111.17
2019-01-24T05:30:51.361Z,107.97
2019-01-24T05:33:19.523Z,107.03
2019-01-24T05:35:48.277Z,108.92
2019-01-24T05:38:23.366Z,112.97
2019-01-24T05:40:51.603Z,106.77
2019-01-24T05:43:20.080Z,118.43
2019-01-24T05:45:48.280Z,127.47
2019-01-24T05:48:20.742Z,122.83
2019-01-24T05:50:49.327Z,133.97
2019-01-24T05:53:17.528Z,111.83
2019-01-24T05:55:45.678Z,120.47
2019-01-24T05:58:14.206Z,115.70
2019-01-24T06:00:51.445Z,106.07
2019-01-24T06:03:19.624Z,117.93
2019-01-24T06:05:48.084Z,113.67
2019-01-24T06:08:16.678Z,115.00
2019-01-24T06:10:45.555Z,108.63
2019-01-24T06:13:13.771Z,123.50
2019-01-24T06:15:42.628Z,130.67
2019-01-24T06:18:11.205Z,125.17
2019-01-24T06:20:39.401Z,125.10
2019-01-24T06:23:07.864Z,111.70
2019-01-24T06:25:36.054Z,114.27
2019-01-24T06:28:04.432Z,123.20
2019-01-24T06:30:32.610Z,124.97
2019-01-24T06:33:00.773Z,120.83
2019-01-24T06:35:29.482Z,113.10
2019-01-24T06:37:58.464Z,135.03
2019-01-24T06:40:27.036Z,127.57
2019-01-24T06:42:55.209Z,125.67
2019-01-24T06:45:23.471Z,133.90
2019-01-24T06:47:51.667Z,143.67
2019-01-24T06:50:19.843Z,143.40
2019-01-24T06:52:48.387Z,139.00
2019-01-24T06:55:25.354Z,134.87
2019-01-24T06:57:53.862Z,118.40
2019-01-24T07:00:23.476Z,125.23
2019-01-24T07:02:51.696Z,116.23
2019-01-24T07:05:20.225Z,144.33
2019-01-24T07:07:49.440Z,150.13
2019-01-24T07:10:18.835Z,139.83
2019-01-24T07:12:47.025Z,151.03
2019-01-24T07:15:17.734Z,139.90
2019-01-24T07:17:45.905Z,125.77
2019-01-24T07:20:14.374Z,135.80
2019-01-24T07:22:42.570Z,140.30
2019-01-24T07:25:13.289Z,134.97
2019-01-24T07:27:41.481Z,147.87
2019-01-24T07:30:11.534Z,128.80
2019-01-24T07:32:39.900Z,133.97
2019-01-24T07:35:10.301Z,132.63
2019-01-24T07:37:38.458Z,139.30
2019-01-24T07:40:07.145Z,144.00
2019-01-24T07:42:35.319Z,137.67
2019-01-24T07:45:03.508Z,124.47
2019-01-24T07:47:31.912Z,131.03
2019-01-24T07:50:00.041Z,135.20
2019-01-24T07:52:28.227Z,120.53
2019-01-24T07:54:56.761Z,131.93
2019-01-24T07:57:25.471Z,123.80
2019-01-24T07:59:53.647Z,132.20
2019-01-24T08:02:21.829Z,125.70
2019-01-24T08:04:50.297Z,136.03
2019-01-24T08:07:18.488Z,119.03
2019-01-24T08:09:47.904Z,121.43
2019-01-24T08:12:16.378Z,129.27
2019-01-24T08:14:44.595Z,136.80
2019-01-24T08:17:13.744Z,142.17
2019-01-24T08:19:41.920Z,138.63
2019-01-24T08:22:10.432Z,146.77
2019-01-24T08:24:38.574Z,145.00
2019-01-24T08:27:08.092Z,149.87
2019-01-24T08:29:37.304Z,151.70
2019-01-24T08:32:05.450Z,142.73
2019-01-24T08:34:40.621Z,140.97
2019-01-24T08:37:15.738Z,134.73
2019-01-24T08:39:48.384Z,142.00
2019-01-24T08:42:24.820Z,130.97
2019-01-24T08:44:55.116Z,148.62
2019-01-24T08:47:35.770Z,150.13
2019-01-24T08:50:08.437Z,139.50
2019-01-24T08:52:40.804Z,140.83
2019-01-24T08:55:15.399Z,136.33
2019-01-24T08:57:51.572Z,142.73
2019-01-24T09:00:21.859Z,153.83
2019-01-24T09:02:50.112Z,143.07
2019-01-24T09:05:18.306Z,131.07
2019-01-24T09:07:46.846Z,135.80
2019-01-24T09:10:18.687Z,138.67
2019-01-24T09:12:47.910Z,132.43
2019-01-24T09:15:16.070Z,132.97
2019-01-24T09:17:46.398Z,138.60
2019-01-24T09:20:16.992Z,177.53
2019-01-24T09:22:46.090Z,130.60
2019-01-24T09:25:15.439Z,131.20
2019-01-24T09:27:43.609Z,126.40
2019-01-24T09:30:14.667Z,123.03
2019-01-24T09:32:43.870Z,132.93
2019-01-24T09:35:12.043Z,130.33
2019-01-24T09:37:40.184Z,130.23
2019-01-24T09:40:09.894Z,126.50
2019-01-24T09:42:40.423Z,128.57
2019-01-24T09:45:17.008Z,127.20
2019-01-24T09:47:46.481Z,130.67
2019-01-24T09:50:19.379Z,115.50
2019-01-24T09:52:48.535Z,130.17
2019-01-24T09:55:17.390Z,127.37
2019-01-24T09:57:47.743Z,129.93
2019-01-24T10:00:23.218Z,137.60
2019-01-24T10:02:54.488Z,128.17
2019-01-24T10:05:23.776Z,125.90
2019-01-24T10:07:52.988Z,127.40
2019-01-24T10:10:24.488Z,126.57
2019-01-24T10:12:53.442Z,123.60
2019-01-24T10:15:31.279Z,127.07
2019-01-24T10:17:59.452Z,122.47
2019-01-24T10:20:33.744Z,129.10
2019-01-24T10:23:34.526Z,134.27
2019-01-24T10:26:16.853Z,129.63
2019-01-24T10:29:12.669Z,121.17
2019-01-24T10:31:53.045Z,120.37
2019-01-24T10:34:28.166Z,127.80
2019-01-24T10:36:56.432Z,139.17
2019-01-24T10:39:29.691Z,132.65
2019-01-24T10:41:58.904Z,132.45
2019-01-24T10:44:34.675Z,121.47
2019-01-24T10:47:04.011Z,123.03
2019-01-24T10:49:34.319Z,115.67
2019-01-24T10:52:03.542Z,119.27
2019-01-24T10:54:47.223Z,124.22
2019-01-24T10:57:26.875Z,119.33
2019-01-24T10:59:58.546Z,125.57
2019-01-24T11:02:32.684Z,121.53
2019-01-24T11:05:01.166Z,122.07
2019-01-24T11:07:31.382Z,128.60
2019-01-24T11:10:10.222Z,127.30
2019-01-24T11:12:37.528Z,126.20
2019-01-24T11:15:07.543Z,117.80
2019-01-24T11:17:36.779Z,124.00
2019-01-24T11:20:06.766Z,126.90
2019-01-24T11:22:40.787Z,127.70
2019-01-24T11:25:19.521Z,110.70
2019-01-24T11:27:49.751Z,124.97
2019-01-24T11:30:24.544Z,122.87
2019-01-24T11:32:52.784Z,136.77
2019-01-24T11:35:23.968Z,139.97
2019-01-24T11:37:53.896Z,126.60
2019-01-24T11:40:28.735Z,121.77
2019-01-24T11:43:02.805Z,133.07
2019-01-24T11:45:36.709Z,116.85
2019-01-24T11:48:05.107Z,119.83
2019-01-24T11:50:33.295Z,118.10
2019-01-24T11:53:01.476Z,113.77
2019-01-24T11:55:30.674Z,120.10
2019-01-24T11:58:05.120Z,123.97
2019-01-24T12:00:43.863Z,125.82
2019-01-24T12:03:12.481Z,125.10
2019-01-24T12:05:43.416Z,129.43
2019-01-24T12:08:12.676Z,128.17
2019-01-24T12:10:40.815Z,131.97
2019-01-24T12:13:12.219Z,123.00
2019-01-24T12:15:44.901Z,122.10
2019-01-24T12:18:13.138Z,149.00
2019-01-24T12:20:41.606Z,120.10
2019-01-24T12:23:09.755Z,113.20
2019-01-24T12:25:37.947Z,115.03
2019-01-24T12:28:07.145Z,112.87
2019-01-24T12:30:36.134Z,111.77
2019-01-24T12:33:11.383Z,109.80
2019-01-24T12:35:39.591Z,112.10
2019-01-24T12:38:09.790Z,106.00
2019-01-24T12:40:38.445Z,101.73
2019-01-24T12:43:06.983Z,106.20
2019-01-24T12:45:41.172Z,99.93
2019-01-24T12:48:17.598Z,98.83
2019-01-24T12:50:45.791Z,99.50
2019-01-24T12:53:16.046Z,97.10
2019-01-24T12:55:44.733Z,99.90
2019-01-24T12:58:14.223Z,98.30
2019-01-24T13:00:48.818Z,89.60
2019-01-24T13:03:18.402Z,92.83
2019-01-24T13:05:47.901Z,93.17
2019-01-24T13:08:16.598Z,92.07
2019-01-24T13:10:44.782Z,87.30
2019-01-24T13:13:12.951Z,87.70
2019-01-24T13:15:41.190Z,83.77
2019-01-24T13:18:09.297Z,86.03
2019-01-24T13:20:38.526Z,71.97
2019-01-24T13:23:06.672Z,81.97
2019-01-24T13:25:35.098Z,84.97
2019-01-24T13:28:03.298Z,94.00
2019-01-24T13:30:32.725Z,90.00
2019-01-24T13:33:00.900Z,85.33
2019-01-24T13:35:29.369Z,81.35
2019-01-24T13:37:57.561Z,83.47
2019-01-24T13:40:28.196Z,87.40
2019-01-24T13:42:56.665Z,87.43
2019-01-24T13:45:35.272Z,85.67
2019-01-24T13:48:09.698Z,89.30
2019-01-24T13:50:42.171Z,85.13
2019-01-24T13:53:10.390Z,86.90
2019-01-24T13:55:39.895Z,79.55
2019-01-24T13:58:08.284Z,82.83
2019-01-24T14:00:38.393Z,83.40
2019-01-24T14:03:13.787Z,80.00
2019-01-24T14:05:44.026Z,77.47
2019-01-24T14:08:12.219Z,74.83
2019-01-24T14:10:41.569Z,81.43
2019-01-24T14:13:09.775Z,83.10
2019-01-24T14:15:38.949Z,79.90
2019-01-24T14:18:07.168Z,82.97
2019-01-24T14:20:43.415Z,86.93
2019-01-24T14:23:11.954Z,86.97
2019-01-24T14:25:46.480Z,91.30
2019-01-24T14:28:14.739Z,84.97
2019-01-24T14:30:42.976Z,76.77
2019-01-24T14:33:11.180Z,79.23
2019-01-24T14:35:40.404Z,84.77
2019-01-24T14:38:08.609Z,77.93
2019-01-24T14:40:37.839Z,84.60
2019-01-24T14:43:06.306Z,81.67
2019-01-24T14:45:34.451Z,81.30
2019-01-24T14:48:03.710Z,81.20
2019-01-24T14:50:38.528Z,80.50
2019-01-24T14:53:06.230Z,82.70
2019-01-24T14:55:35.452Z,80.60
2019-01-24T14:58:05.683Z,79.47
2019-01-24T15:00:48.536Z,85.25
2019-01-24T15:03:17.829Z,91.13
2019-01-24T15:05:46.059Z,87.30
2019-01-24T15:08:14.923Z,92.60
2019-01-24T15:10:42.708Z,87.73
2019-01-24T15:13:12.972Z,82.57
2019-01-24T15:15:47.248Z,93.00
2019-01-24T15:18:17.562Z,90.93
2019-01-24T15:20:47.715Z,83.10
2019-01-24T15:23:16.903Z,88.30
2019-01-24T15:25:53.499Z,83.33
2019-01-24T15:28:23.067Z,86.23
2019-01-24T15:30:51.263Z,94.30
2019-01-24T15:33:19.436Z,84.27
2019-01-24T15:35:47.635Z,81.20
2019-01-24T15:38:21.701Z,93.63
2019-01-24T15:40:50.893Z,93.70
2019-01-24T15:43:19.076Z,91.33
2019-01-24T15:45:47.248Z,89.07
2019-01-24T15:48:15.465Z,92.80
2019-01-24T15:50:43.579Z,96.10
2019-01-24T15:53:12.026Z,93.77
2019-01-24T15:55:40.301Z,86.47
2019-01-24T15:58:08.533Z,80.27
2019-01-24T16:00:44.145Z,91.87
2019-01-24T16:03:12.644Z,91.80
2019-01-24T16:05:47.889Z,90.13
2019-01-24T16:08:37.412Z,94.60
2019-01-24T16:11:11.494Z,89.77
2019-01-24T16:13:39.651Z,92.50
2019-01-24T16:16:21.348Z,87.33
2019-01-24T16:19:01.833Z,92.60
2019-01-24T16:22:07.163Z,97.87
2019-01-24T16:24:42.286Z,85.33
2019-01-24T16:27:13.667Z,99.10
2019-01-24T16:29:48.262Z,97.77
2019-01-24T16:32:23.700Z,105.67
2019-01-24T16:35:01.243Z,105.70
2019-01-24T16:37:40.819Z,98.03
2019-01-24T16:40:54.224Z,94.43
2019-01-24T16:43:23.466Z,90.87
2019-01-24T16:45:55.917Z,95.33
2019-01-24T16:48:28.712Z,89.27
2019-01-24T16:51:04.244Z,108.60
2019-01-24T16:53:31.000Z,101.20
2019-01-24T16:56:03.529Z,107.87
2019-01-24T16:58:31.745Z,104.33
2019-01-24T17:01:08.602Z,107.20
2019-01-24T17:03:38.135Z,121.70
2019-01-24T17:06:06.293Z,119.73
2019-01-24T17:08:34.435Z,109.67
2019-01-24T17:11:02.662Z,125.97
2019-01-24T17:13:31.440Z,130.10
2019-01-24T17:15:59.876Z,122.33
2019-01-24T17:18:28.096Z,136.50
2019-01-24T17:20:56.490Z,136.57
2019-01-24T17:23:24.709Z,146.70
2019-01-24T17:25:54.177Z,143.13
2019-01-24T17:28:22.504Z,158.67
2019-01-24T17:30:50.721Z,147.53
2019-01-24T17:33:20.219Z,141.90
2019-01-24T17:35:48.409Z,149.20
2019-01-24T17:38:23.877Z,150.70
2019-01-24T17:40:48.934Z,148.50
2019-01-24T17:43:17.131Z,149.57
2019-01-24T17:45:45.263Z,136.47
2019-01-24T17:48:32.827Z,140.87
2019-01-24T17:51:01.242Z,145.27
2019-01-24T17:53:29.494Z,151.40
2019-01-24T17:55:57.635Z,140.70
2019-01-24T17:58:25.851Z,146.57
2019-01-24T18:00:54.298Z,136.27
2019-01-24T18:03:22.447Z,147.35
2019-01-24T18:05:51.694Z,146.30
2019-01-24T18:08:19.878Z,140.90
2019-01-24T18:10:49.042Z,147.80
2019-01-24T18:13:17.607Z,152.70
2019-01-24T18:15:46.629Z,157.30
2019-01-24T18:18:15.524Z,168.20
2019-01-24T18:20:44.583Z,157.33
2019-01-24T18:23:19.946Z,158.77
2019-01-24T18:25:47.074Z,157.67
2019-01-24T18:28:15.272Z,159.43
2019-01-24T18:30:43.472Z,162.82
2019-01-24T18:33:11.838Z,151.30
2019-01-24T18:35:40.580Z,154.67
2019-01-24T18:38:08.840Z,144.77
2019-01-24T18:40:38.081Z,156.87
2019-01-24T18:43:11.959Z,151.17
2019-01-24T18:45:44.752Z,153.40
2019-01-24T18:48:12.961Z,162.50
2019-01-24T18:50:41.142Z,162.43
2019-01-24T18:53:11.579Z,154.00
2019-01-24T18:55:37.858Z,148.10
2019-01-24T18:58:07.331Z,157.20
2019-01-24T19:00:40.575Z,152.63
2019-01-24T19:03:09.399Z,154.90
2019-01-24T19:05:40.742Z,148.20
2019-01-24T19:08:08.976Z,174.07
2019-01-24T19:10:37.161Z,171.97
2019-01-24T19:13:06.726Z,153.87
2019-01-24T19:15:34.917Z,156.53
2019-01-24T19:18:03.108Z,159.67
2019-01-24T19:20:31.245Z,149.23
2019-01-24T19:22:59.420Z,158.10
2019-01-24T19:25:28.642Z,157.43
2019-01-24T19:27:57.136Z,159.57
2019-01-24T19:30:27.553Z,149.17
2019-01-24T19:32:55.720Z,161.87
2019-01-24T19:35:23.875Z,160.33
2019-01-24T19:37:52.059Z,167.70
2019-01-24T19:40:21.864Z,147.23
2019-01-24T19:42:50.927Z,172.17
2019-01-24T19:45:20.669Z,163.47
2019-01-24T19:47:48.839Z,154.63
2019-01-24T19:50:19.258Z,156.93
2019-01-24T19:52:47.712Z,183.97
2019-01-24T19:55:15.908Z,157.03
2019-01-24T19:57:44.425Z,160.77
2019-01-24T20:00:15.463Z,157.17
2019-01-24T20:02:43.631Z,181.40
2019-01-24T20:05:11.947Z,173.67
2019-01-24T20:07:40.156Z,161.53
2019-01-24T20:10:12.093Z,169.20
2019-01-24T20:12:40.300Z,172.70
2019-01-24T20:15:11.599Z,177.27
2019-01-24T20:17:40.747Z,179.00
2019-01-24T20:20:11.234Z,157.07
2019-01-24T20:22:39.499Z,172.97
2019-01-24T20:25:10.450Z,166.30
2019-01-24T20:27:38.649Z,161.20
2019-01-24T20:30:09.322Z,168.57
2019-01-24T20:32:38.773Z,165.20
2019-01-24T20:35:11.517Z,172.07
2019-01-24T20:37:40.661Z,156.27
2019-01-24T20:40:09.796Z,168.40
2019-01-24T20:42:38.774Z,145.97
2019-01-24T20:45:07.050Z,164.60
2019-01-24T20:47:35.206Z,150.80
2019-01-24T20:50:03.535Z,171.30
2019-01-24T20:52:31.774Z,169.27
2019-01-24T20:54:59.944Z,161.70
2019-01-24T20:57:28.495Z,172.70
2019-01-24T20:59:56.729Z,163.10
2019-01-24T21:02:24.874Z,151.10
2019-01-24T21:04:54.636Z,174.80
2019-01-24T21:07:21.535Z,188.87
2019-01-24T21:09:50.001Z,156.93
2019-01-24T21:12:18.213Z,183.10
2019-01-24T21:14:46.908Z,188.13
2019-01-24T21:17:17.608Z,169.83
2019-01-24T21:19:45.778Z,159.33
2019-01-24T21:22:14.895Z,155.83
2019-01-24T21:24:43.726Z,153.30
2019-01-24T21:27:11.922Z,164.73
2019-01-24T21:29:40.102Z,167.47
2019-01-24T21:32:09.311Z,161.83
2019-01-24T21:34:37.460Z,160.07
2019-01-24T21:37:05.667Z,164.50
2019-01-24T21:39:33.872Z,163.50
2019-01-24T21:42:02.254Z,172.80
2019-01-24T21:44:30.522Z,162.27
2019-01-24T21:46:58.732Z,185.80
2019-01-24T21:49:27.227Z,164.45
2019-01-24T21:51:55.370Z,155.70
2019-01-24T21:54:23.587Z,184.57
2019-01-24T21:56:51.736Z,159.80
2019-01-24T21:59:19.997Z,159.43
2019-01-24T22:01:48.199Z,166.63
2019-01-24T22:04:16.631Z,168.10
2019-01-24T22:06:45.866Z,187.20
2019-01-24T22:09:14.114Z,175.50
2019-01-24T22:11:42.309Z,161.20
2019-01-24T22:14:10.492Z,157.83
2019-01-24T22:16:39.685Z,174.43
2019-01-24T22:19:07.862Z,173.60
2019-01-24T22:21:36.038Z,171.97
2019-01-24T22:24:04.846Z,152.47
2019-01-24T22:26:32.998Z,157.00
2019-01-24T22:29:01.183Z,156.00
2019-01-24T22:31:29.734Z,171.23
2019-01-24T22:33:57.933Z,158.43
2019-01-24T22:36:26.090Z,144.27
2019-01-24T22:38:54.321Z,153.27
2019-01-24T22:41:22.816Z,145.40
2019-01-24T22:43:51.628Z,169.40
2019-01-24T22:46:20.233Z,147.30
2019-01-24T22:48:48.899Z,146.30
2019-01-24T22:51:17.078Z,152.63
2019-01-24T22:53:45.274Z,163.43
2019-01-24T22:56:13.425Z,156.80
2019-01-24T22:58:41.598Z,143.90
2019-01-24T23:01:32.698Z,150.17
2019-01-24T23:04:08.680Z,150.63
2019-01-24T23:06:40.788Z,146.83
2019-01-24T23:09:10.645Z,154.40
2019-01-24T23:11:39.289Z,159.63
2019-01-24T23:14:07.598Z,162.87
2019-01-24T23:16:35.896Z,139.03
2019-01-24T23:19:05.351Z,146.33
2019-01-24T23:21:33.561Z,162.33
2019-01-24T23:24:02.031Z,150.57
2019-01-24T23:26:32.413Z,145.63
2019-01-24T23:29:00.539Z,136.83
2019-01-24T23:31:29.753Z,128.70
2019-01-24T23:33:58.179Z,146.77
2019-01-24T23:36:26.405Z,144.73
2019-01-24T23:38:54.548Z,141.00
2019-01-24T23:41:23.913Z,150.30
2019-01-24T23:43:53.973Z,149.70
2019-01-24T23:46:23.474Z,143.17
2019-01-24T23:48:52.682Z,138.07
2019-01-24T23:51:20.934Z,147.80
2019-01-24T23:53:49.428Z,144.93
2019-01-24T23:56:17.638Z,150.00
2019-01-24T23:58:48.299Z,142.57
